sensor_id;sensor_type;location;lat;lon;timestamp;P1;durP1;ratioP1;P2;durP2;ratioP2
57087;SDS011;42965;52.846;6.614;2023-04-10T00:00:09;59.08;;;46.13;;
57087;SDS011;42965;52.846;6.614;2023-04-10T00:02:36;57.30;;;46.53;;
57087;SDS011;42965;52.846;6.614;2023-04-10T00:05:03;55.03;;;44.92;;
57087;SDS011;42965;52.846;6.614;2023-04-10T00:07:30;56.92;;;46.72;;
57087;SDS011;42965;52.846;6.614;2023-04-10T00:09:56;56.53;;;46.28;;
57087;SDS011;42965;52.846;6.614;2023-04-10T00:12:23;53.53;;;45.92;;
57087;SDS011;42965;52.846;6.614;2023-04-10T00:14:50;58.13;;;45.90;;
57087;SDS011;42965;52.846;6.614;2023-04-10T00:17:19;59.00;;;47.05;;
57087;SDS011;42965;52.846;6.614;2023-04-10T00:19:45;53.70;;;46.65;;
57087;SDS011;42965;52.846;6.614;2023-04-10T00:22:13;58.80;;;48.03;;
57087;SDS011;42965;52.846;6.614;2023-04-10T00:24:40;57.75;;;47.42;;
57087;SDS011;42965;52.846;6.614;2023-04-10T00:27:06;59.58;;;48.22;;
57087;SDS011;42965;52.846;6.614;2023-04-10T00:29:32;57.28;;;48.53;;
57087;SDS011;42965;52.846;6.614;2023-04-10T00:31:59;56.35;;;48.83;;
57087;SDS011;42965;52.846;6.614;2023-04-10T00:34:25;53.90;;;46.67;;
57087;SDS011;42965;52.846;6.614;2023-04-10T00:36:51;59.67;;;48.03;;
57087;SDS011;42965;52.846;6.614;2023-04-10T00:39:18;61.72;;;49.33;;
57087;SDS011;42965;52.846;6.614;2023-04-10T00:41:44;64.45;;;51.72;;
57087;SDS011;42965;52.846;6.614;2023-04-10T00:44:10;59.70;;;49.80;;
57087;SDS011;42965;52.846;6.614;2023-04-10T00:46:37;64.20;;;50.45;;
57087;SDS011;42965;52.846;6.614;2023-04-10T00:49:04;62.10;;;52.00;;
57087;SDS011;42965;52.846;6.614;2023-04-10T00:51:32;61.33;;;51.38;;
57087;SDS011;42965;52.846;6.614;2023-04-10T00:53:59;64.70;;;50.58;;
57087;SDS011;42965;52.846;6.614;2023-04-10T00:56:27;62.60;;;51.95;;
57087;SDS011;42965;52.846;6.614;2023-04-10T00:58:58;64.50;;;53.67;;
57087;SDS011;42965;52.846;6.614;2023-04-10T01:01:24;71.97;;;55.42;;
57087;SDS011;42965;52.846;6.614;2023-04-10T01:03:51;64.93;;;54.67;;
57087;SDS011;42965;52.846;6.614;2023-04-10T01:09:08;64.90;;;55.20;;
57087;SDS011;42965;52.846;6.614;2023-04-10T01:11:49;73.25;;;56.83;;
57087;SDS011;42965;52.846;6.614;2023-04-10T01:14:25;68.15;;;58.08;;
57087;SDS011;42965;52.846;6.614;2023-04-10T01:17:00;69.55;;;55.53;;
57087;SDS011;42965;52.846;6.614;2023-04-10T01:22:33;72.55;;;59.75;;
57087;SDS011;42965;52.846;6.614;2023-04-10T01:25:10;77.40;;;60.08;;
57087;SDS011;42965;52.846;6.614;2023-04-10T01:30:47;75.00;;;61.50;;
57087;SDS011;42965;52.846;6.614;2023-04-10T01:33:19;76.60;;;63.60;;
57087;SDS011;42965;52.846;6.614;2023-04-10T01:35:51;73.07;;;60.67;;
57087;SDS011;42965;52.846;6.614;2023-04-10T01:38:20;75.38;;;62.08;;
57087;SDS011;42965;52.846;6.614;2023-04-10T01:40:52;78.55;;;64.10;;
57087;SDS011;42965;52.846;6.614;2023-04-10T01:43:28;78.90;;;64.75;;
57087;SDS011;42965;52.846;6.614;2023-04-10T01:45:56;76.60;;;63.67;;
57087;SDS011;42965;52.846;6.614;2023-04-10T01:48:24;79.35;;;65.00;;
57087;SDS011;42965;52.846;6.614;2023-04-10T01:50:51;77.60;;;64.13;;
57087;SDS011;42965;52.846;6.614;2023-04-10T01:53:22;85.20;;;67.95;;
57087;SDS011;42965;52.846;6.614;2023-04-10T01:55:49;83.05;;;67.57;;
57087;SDS011;42965;52.846;6.614;2023-04-10T01:58:17;78.40;;;62.40;;
57087;SDS011;42965;52.846;6.614;2023-04-10T02:00:44;85.78;;;68.97;;
57087;SDS011;42965;52.846;6.614;2023-04-10T02:03:12;82.10;;;67.05;;
57087;SDS011;42965;52.846;6.614;2023-04-10T02:05:45;82.90;;;68.35;;
57087;SDS011;42965;52.846;6.614;2023-04-10T02:11:06;82.10;;;67.80;;
57087;SDS011;42965;52.846;6.614;2023-04-10T02:13:40;78.03;;;64.18;;
57087;SDS011;42965;52.846;6.614;2023-04-10T02:16:08;77.68;;;66.80;;
57087;SDS011;42965;52.846;6.614;2023-04-10T02:18:36;79.10;;;65.85;;
57087;SDS011;42965;52.846;6.614;2023-04-10T02:21:05;78.53;;;64.05;;
57087;SDS011;42965;52.846;6.614;2023-04-10T02:23:32;77.95;;;63.42;;
57087;SDS011;42965;52.846;6.614;2023-04-10T02:26:04;79.72;;;64.13;;
57087;SDS011;42965;52.846;6.614;2023-04-10T02:28:32;78.45;;;62.10;;
57087;SDS011;42965;52.846;6.614;2023-04-10T02:30:58;82.95;;;62.78;;
57087;SDS011;42965;52.846;6.614;2023-04-10T02:33:26;73.63;;;61.25;;
57087;SDS011;42965;52.846;6.614;2023-04-10T02:35:52;82.63;;;65.53;;
57087;SDS011;42965;52.846;6.614;2023-04-10T02:38:18;81.32;;;64.95;;
57087;SDS011;42965;52.846;6.614;2023-04-10T02:40:45;80.57;;;63.03;;
57087;SDS011;42965;52.846;6.614;2023-04-10T02:43:13;76.15;;;62.85;;
57087;SDS011;42965;52.846;6.614;2023-04-10T02:45:40;77.45;;;61.50;;
57087;SDS011;42965;52.846;6.614;2023-04-10T02:48:08;77.47;;;62.40;;
57087;SDS011;42965;52.846;6.614;2023-04-10T02:50:35;78.15;;;64.47;;
57087;SDS011;42965;52.846;6.614;2023-04-10T02:53:02;82.00;;;65.55;;
57087;SDS011;42965;52.846;6.614;2023-04-10T02:55:28;80.75;;;65.70;;
57087;SDS011;42965;52.846;6.614;2023-04-10T02:57:55;78.35;;;63.30;;
57087;SDS011;42965;52.846;6.614;2023-04-10T03:00:21;78.28;;;62.63;;
57087;SDS011;42965;52.846;6.614;2023-04-10T03:03:07;76.80;;;60.63;;
57087;SDS011;42965;52.846;6.614;2023-04-10T03:05:42;73.75;;;61.22;;
57087;SDS011;42965;52.846;6.614;2023-04-10T03:08:08;77.22;;;63.15;;
57087;SDS011;42965;52.846;6.614;2023-04-10T03:10:34;73.55;;;62.47;;
57087;SDS011;42965;52.846;6.614;2023-04-10T03:13:01;78.03;;;63.78;;
57087;SDS011;42965;52.846;6.614;2023-04-10T03:15:27;80.63;;;63.42;;
57087;SDS011;42965;52.846;6.614;2023-04-10T03:17:53;80.18;;;67.28;;
57087;SDS011;42965;52.846;6.614;2023-04-10T03:20:22;79.28;;;65.30;;
57087;SDS011;42965;52.846;6.614;2023-04-10T03:22:48;84.10;;;65.80;;
57087;SDS011;42965;52.846;6.614;2023-04-10T03:25:15;77.38;;;65.32;;
57087;SDS011;42965;52.846;6.614;2023-04-10T03:27:41;81.82;;;66.97;;
57087;SDS011;42965;52.846;6.614;2023-04-10T03:30:08;82.25;;;66.82;;
57087;SDS011;42965;52.846;6.614;2023-04-10T03:32:39;86.85;;;68.30;;
57087;SDS011;42965;52.846;6.614;2023-04-10T03:35:08;83.75;;;66.47;;
57087;SDS011;42965;52.846;6.614;2023-04-10T03:37:35;81.88;;;66.93;;
57087;SDS011;42965;52.846;6.614;2023-04-10T03:40:05;84.20;;;69.60;;
57087;SDS011;42965;52.846;6.614;2023-04-10T03:42:33;80.25;;;69.28;;
57087;SDS011;42965;52.846;6.614;2023-04-10T03:45:00;80.32;;;67.28;;
57087;SDS011;42965;52.846;6.614;2023-04-10T03:47:30;84.93;;;66.78;;
57087;SDS011;42965;52.846;6.614;2023-04-10T03:49:59;81.53;;;65.25;;
57087;SDS011;42965;52.846;6.614;2023-04-10T03:52:26;81.20;;;67.68;;
57087;SDS011;42965;52.846;6.614;2023-04-10T03:54:54;82.65;;;66.90;;
57087;SDS011;42965;52.846;6.614;2023-04-10T03:57:25;85.72;;;71.20;;
57087;SDS011;42965;52.846;6.614;2023-04-10T03:59:58;85.07;;;69.15;;
57087;SDS011;42965;52.846;6.614;2023-04-10T04:02:26;83.43;;;70.70;;
57087;SDS011;42965;52.846;6.614;2023-04-10T04:04:53;87.95;;;71.20;;
57087;SDS011;42965;52.846;6.614;2023-04-10T04:07:40;86.30;;;69.20;;
57087;SDS011;42965;52.846;6.614;2023-04-10T04:10:41;85.10;;;69.20;;
57087;SDS011;42965;52.846;6.614;2023-04-10T04:13:16;83.32;;;68.22;;
57087;SDS011;42965;52.846;6.614;2023-04-10T04:16:01;85.35;;;70.93;;
57087;SDS011;42965;52.846;6.614;2023-04-10T04:18:40;88.38;;;70.28;;
57087;SDS011;42965;52.846;6.614;2023-04-10T04:21:25;83.10;;;63.45;;
57087;SDS011;42965;52.846;6.614;2023-04-10T04:24:18;84.40;;;67.53;;
57087;SDS011;42965;52.846;6.614;2023-04-10T04:26:59;82.13;;;65.90;;
57087;SDS011;42965;52.846;6.614;2023-04-10T04:29:34;85.80;;;70.50;;
57087;SDS011;42965;52.846;6.614;2023-04-10T04:32:33;85.43;;;70.82;;
57087;SDS011;42965;52.846;6.614;2023-04-10T04:35:21;90.18;;;70.72;;
57087;SDS011;42965;52.846;6.614;2023-04-10T04:38:16;87.38;;;66.97;;
57087;SDS011;42965;52.846;6.614;2023-04-10T04:41:03;81.20;;;65.25;;
57087;SDS011;42965;52.846;6.614;2023-04-10T04:43:41;81.88;;;66.70;;
57087;SDS011;42965;52.846;6.614;2023-04-10T04:46:30;85.07;;;67.85;;
57087;SDS011;42965;52.846;6.614;2023-04-10T04:49:15;85.25;;;69.57;;
57087;SDS011;42965;52.846;6.614;2023-04-10T04:52:10;79.55;;;64.72;;
57087;SDS011;42965;52.846;6.614;2023-04-10T04:55:00;84.88;;;63.33;;
57087;SDS011;42965;52.846;6.614;2023-04-10T04:57:36;78.82;;;64.97;;
57087;SDS011;42965;52.846;6.614;2023-04-10T05:00:22;82.03;;;66.47;;
57087;SDS011;42965;52.846;6.614;2023-04-10T05:03:08;78.70;;;65.05;;
57087;SDS011;42965;52.846;6.614;2023-04-10T05:05:51;80.47;;;64.25;;
57087;SDS011;42965;52.846;6.614;2023-04-10T05:08:40;80.30;;;63.72;;
57087;SDS011;42965;52.846;6.614;2023-04-10T05:11:24;77.05;;;63.17;;
57087;SDS011;42965;52.846;6.614;2023-04-10T05:16:41;76.53;;;60.15;;
57087;SDS011;42965;52.846;6.614;2023-04-10T05:19:19;75.78;;;63.25;;
57087;SDS011;42965;52.846;6.614;2023-04-10T05:22:10;78.70;;;63.50;;
57087;SDS011;42965;52.846;6.614;2023-04-10T05:25:12;75.82;;;61.17;;
57087;SDS011;42965;52.846;6.614;2023-04-10T05:27:56;72.32;;;59.97;;
57087;SDS011;42965;52.846;6.614;2023-04-10T05:30:47;74.35;;;60.60;;
57087;SDS011;42965;52.846;6.614;2023-04-10T05:33:40;77.35;;;61.53;;
57087;SDS011;42965;52.846;6.614;2023-04-10T05:36:27;76.72;;;64.03;;
57087;SDS011;42965;52.846;6.614;2023-04-10T05:39:15;77.80;;;61.83;;
57087;SDS011;42965;52.846;6.614;2023-04-10T05:42:05;76.28;;;61.38;;
57087;SDS011;42965;52.846;6.614;2023-04-10T05:44:48;74.45;;;59.90;;
57087;SDS011;42965;52.846;6.614;2023-04-10T05:47:26;73.57;;;61.13;;
57087;SDS011;42965;52.846;6.614;2023-04-10T05:50:11;76.15;;;60.28;;
57087;SDS011;42965;52.846;6.614;2023-04-10T05:53:12;75.55;;;62.10;;
57087;SDS011;42965;52.846;6.614;2023-04-10T05:55:58;74.00;;;60.78;;
57087;SDS011;42965;52.846;6.614;2023-04-10T05:58:42;71.80;;;60.38;;
57087;SDS011;42965;52.846;6.614;2023-04-10T06:01:47;72.78;;;62.67;;
57087;SDS011;42965;52.846;6.614;2023-04-10T06:04:14;67.20;;;56.33;;
57087;SDS011;42965;52.846;6.614;2023-04-10T06:06:41;71.90;;;60.15;;
57087;SDS011;42965;52.846;6.614;2023-04-10T06:09:09;75.15;;;59.33;;
57087;SDS011;42965;52.846;6.614;2023-04-10T06:11:35;70.75;;;58.40;;
57087;SDS011;42965;52.846;6.614;2023-04-10T06:14:02;70.95;;;60.35;;
57087;SDS011;42965;52.846;6.614;2023-04-10T06:16:35;67.13;;;54.00;;
57087;SDS011;42965;52.846;6.614;2023-04-10T06:19:01;66.38;;;55.97;;
57087;SDS011;42965;52.846;6.614;2023-04-10T06:21:28;67.72;;;55.53;;
57087;SDS011;42965;52.846;6.614;2023-04-10T06:23:55;67.10;;;58.55;;
57087;SDS011;42965;52.846;6.614;2023-04-10T06:26:23;68.60;;;56.80;;
57087;SDS011;42965;52.846;6.614;2023-04-10T06:28:51;67.60;;;55.28;;
57087;SDS011;42965;52.846;6.614;2023-04-10T06:31:18;63.08;;;55.42;;
57087;SDS011;42965;52.846;6.614;2023-04-10T06:33:48;64.20;;;52.95;;
57087;SDS011;42965;52.846;6.614;2023-04-10T06:36:15;64.22;;;54.38;;
57087;SDS011;42965;52.846;6.614;2023-04-10T06:38:58;65.93;;;55.90;;
57087;SDS011;42965;52.846;6.614;2023-04-10T06:41:24;63.38;;;54.42;;
57087;SDS011;42965;52.846;6.614;2023-04-10T06:43:53;60.78;;;53.17;;
57087;SDS011;42965;52.846;6.614;2023-04-10T06:46:19;59.58;;;52.03;;
57087;SDS011;42965;52.846;6.614;2023-04-10T06:48:46;59.97;;;52.53;;
57087;SDS011;42965;52.846;6.614;2023-04-10T06:51:12;61.72;;;52.55;;
57087;SDS011;42965;52.846;6.614;2023-04-10T06:53:38;61.63;;;53.17;;
57087;SDS011;42965;52.846;6.614;2023-04-10T06:56:04;63.60;;;53.00;;
57087;SDS011;42965;52.846;6.614;2023-04-10T06:58:31;61.83;;;51.13;;
57087;SDS011;42965;52.846;6.614;2023-04-10T07:00:57;57.40;;;51.05;;
57087;SDS011;42965;52.846;6.614;2023-04-10T07:03:29;61.38;;;51.22;;
57087;SDS011;42965;52.846;6.614;2023-04-10T07:05:57;60.03;;;51.60;;
57087;SDS011;42965;52.846;6.614;2023-04-10T07:08:23;62.50;;;50.85;;
57087;SDS011;42965;52.846;6.614;2023-04-10T07:10:49;62.05;;;51.83;;
57087;SDS011;42965;52.846;6.614;2023-04-10T07:13:15;57.97;;;50.45;;
57087;SDS011;42965;52.846;6.614;2023-04-10T07:15:41;55.42;;;48.30;;
57087;SDS011;42965;52.846;6.614;2023-04-10T07:18:08;57.28;;;47.95;;
57087;SDS011;42965;52.846;6.614;2023-04-10T07:20:34;56.53;;;48.58;;
57087;SDS011;42965;52.846;6.614;2023-04-10T07:23:00;56.85;;;47.83;;
57087;SDS011;42965;52.846;6.614;2023-04-10T07:25:27;56.72;;;48.92;;
57087;SDS011;42965;52.846;6.614;2023-04-10T07:27:53;55.58;;;48.10;;
57087;SDS011;42965;52.846;6.614;2023-04-10T07:30:19;53.78;;;46.22;;
57087;SDS011;42965;52.846;6.614;2023-04-10T07:32:45;53.25;;;46.10;;
57087;SDS011;42965;52.846;6.614;2023-04-10T07:35:12;52.90;;;45.10;;
57087;SDS011;42965;52.846;6.614;2023-04-10T07:37:38;51.67;;;44.17;;
57087;SDS011;42965;52.846;6.614;2023-04-10T07:40:05;53.13;;;45.67;;
57087;SDS011;42965;52.846;6.614;2023-04-10T07:42:32;48.47;;;39.58;;
57087;SDS011;42965;52.846;6.614;2023-04-10T07:44:58;48.03;;;41.60;;
57087;SDS011;42965;52.846;6.614;2023-04-10T07:47:25;46.22;;;39.38;;
57087;SDS011;42965;52.846;6.614;2023-04-10T07:49:51;46.50;;;40.75;;
57087;SDS011;42965;52.846;6.614;2023-04-10T07:52:17;43.53;;;38.80;;
57087;SDS011;42965;52.846;6.614;2023-04-10T07:54:44;44.50;;;36.80;;
57087;SDS011;42965;52.846;6.614;2023-04-10T07:57:10;43.67;;;37.10;;
57087;SDS011;42965;52.846;6.614;2023-04-10T07:59:36;42.88;;;37.13;;
57087;SDS011;42965;52.846;6.614;2023-04-10T08:02:02;39.17;;;35.08;;
57087;SDS011;42965;52.846;6.614;2023-04-10T08:04:28;38.75;;;34.22;;
57087;SDS011;42965;52.846;6.614;2023-04-10T08:06:55;40.92;;;36.08;;
57087;SDS011;42965;52.846;6.614;2023-04-10T08:09:21;35.00;;;31.38;;
57087;SDS011;42965;52.846;6.614;2023-04-10T08:11:50;34.22;;;28.60;;
57087;SDS011;42965;52.846;6.614;2023-04-10T08:14:16;31.40;;;28.20;;
57087;SDS011;42965;52.846;6.614;2023-04-10T08:16:43;31.67;;;28.27;;
57087;SDS011;42965;52.846;6.614;2023-04-10T08:19:09;30.08;;;26.63;;
57087;SDS011;42965;52.846;6.614;2023-04-10T08:21:35;29.83;;;26.38;;
57087;SDS011;42965;52.846;6.614;2023-04-10T08:24:02;27.92;;;24.75;;
57087;SDS011;42965;52.846;6.614;2023-04-10T08:26:30;28.25;;;25.35;;
57087;SDS011;42965;52.846;6.614;2023-04-10T08:28:57;26.52;;;23.65;;
57087;SDS011;42965;52.846;6.614;2023-04-10T08:31:25;28.30;;;25.25;;
57087;SDS011;42965;52.846;6.614;2023-04-10T08:33:52;27.58;;;24.67;;
57087;SDS011;42965;52.846;6.614;2023-04-10T08:36:18;21.70;;;19.35;;
57087;SDS011;42965;52.846;6.614;2023-04-10T08:38:45;23.35;;;20.95;;
57087;SDS011;42965;52.846;6.614;2023-04-10T08:41:12;22.55;;;20.13;;
57087;SDS011;42965;52.846;6.614;2023-04-10T08:43:40;20.67;;;18.58;;
57087;SDS011;42965;52.846;6.614;2023-04-10T08:46:07;21.00;;;18.60;;
57087;SDS011;42965;52.846;6.614;2023-04-10T08:48:44;20.05;;;18.05;;
57087;SDS011;42965;52.846;6.614;2023-04-10T08:51:28;21.98;;;18.10;;
57087;SDS011;42965;52.846;6.614;2023-04-10T08:54:07;19.20;;;17.20;;
57087;SDS011;42965;52.846;6.614;2023-04-10T08:56:39;19.25;;;17.08;;
57087;SDS011;42965;52.846;6.614;2023-04-10T08:59:07;20.08;;;17.98;;
57087;SDS011;42965;52.846;6.614;2023-04-10T09:01:34;19.83;;;17.77;;
57087;SDS011;42965;52.846;6.614;2023-04-10T09:04:03;18.00;;;16.15;;
57087;SDS011;42965;52.846;6.614;2023-04-10T09:06:30;18.63;;;16.65;;
57087;SDS011;42965;52.846;6.614;2023-04-10T09:08:57;17.58;;;15.40;;
57087;SDS011;42965;52.846;6.614;2023-04-10T09:11:43;17.42;;;15.63;;
57087;SDS011;42965;52.846;6.614;2023-04-10T09:14:23;18.00;;;15.30;;
57087;SDS011;42965;52.846;6.614;2023-04-10T09:16:51;16.40;;;14.70;;
57087;SDS011;42965;52.846;6.614;2023-04-10T09:19:37;16.38;;;14.68;;
57087;SDS011;42965;52.846;6.614;2023-04-10T09:22:04;15.95;;;14.18;;
57087;SDS011;42965;52.846;6.614;2023-04-10T09:24:30;16.25;;;14.57;;
57087;SDS011;42965;52.846;6.614;2023-04-10T09:27:02;16.02;;;14.32;;
57087;SDS011;42965;52.846;6.614;2023-04-10T09:29:40;16.30;;;13.77;;
57087;SDS011;42965;52.846;6.614;2023-04-10T09:32:23;15.77;;;14.10;;
57087;SDS011;42965;52.846;6.614;2023-04-10T09:35:00;14.38;;;12.85;;
57087;SDS011;42965;52.846;6.614;2023-04-10T09:37:30;16.13;;;13.80;;
57087;SDS011;42965;52.846;6.614;2023-04-10T09:39:57;15.13;;;13.63;;
57087;SDS011;42965;52.846;6.614;2023-04-10T09:42:31;14.75;;;12.63;;
57087;SDS011;42965;52.846;6.614;2023-04-10T09:44:58;14.77;;;13.27;;
57087;SDS011;42965;52.846;6.614;2023-04-10T09:47:26;15.20;;;13.35;;
57087;SDS011;42965;52.846;6.614;2023-04-10T09:49:53;13.93;;;11.75;;
57087;SDS011;42965;52.846;6.614;2023-04-10T09:54:54;14.25;;;12.75;;
57087;SDS011;42965;52.846;6.614;2023-04-10T09:57:25;15.32;;;12.98;;
57087;SDS011;42965;52.846;6.614;2023-04-10T09:59:53;13.82;;;12.43;;
57087;SDS011;42965;52.846;6.614;2023-04-10T10:02:22;14.63;;;13.13;;
57087;SDS011;42965;52.846;6.614;2023-04-10T10:04:53;13.23;;;11.82;;
57087;SDS011;42965;52.846;6.614;2023-04-10T10:07:21;14.00;;;12.00;;
57087;SDS011;42965;52.846;6.614;2023-04-10T10:09:50;13.07;;;11.57;;
57087;SDS011;42965;52.846;6.614;2023-04-10T10:12:25;14.38;;;12.88;;
57087;SDS011;42965;52.846;6.614;2023-04-10T10:18:02;13.18;;;10.80;;
57087;SDS011;42965;52.846;6.614;2023-04-10T10:20:38;12.55;;;11.25;;
57087;SDS011;42965;52.846;6.614;2023-04-10T10:23:08;11.30;;;10.15;;
57087;SDS011;42965;52.846;6.614;2023-04-10T10:25:35;12.70;;;11.38;;
57087;SDS011;42965;52.846;6.614;2023-04-10T10:28:04;12.20;;;10.50;;
57087;SDS011;42965;52.846;6.614;2023-04-10T10:30:33;11.43;;;10.23;;
57087;SDS011;42965;52.846;6.614;2023-04-10T10:33:01;10.75;;;9.63;;
57087;SDS011;42965;52.846;6.614;2023-04-10T10:35:31;11.40;;;9.55;;
57087;SDS011;42965;52.846;6.614;2023-04-10T10:38:03;10.60;;;9.50;;
57087;SDS011;42965;52.846;6.614;2023-04-10T10:43:33;10.07;;;8.95;;
57087;SDS011;42965;52.846;6.614;2023-04-10T10:48:30;8.73;;;7.82;;
57087;SDS011;42965;52.846;6.614;2023-04-10T10:50:57;8.95;;;7.90;;
57087;SDS011;42965;52.846;6.614;2023-04-10T10:53:31;8.82;;;7.88;;
57087;SDS011;42965;52.846;6.614;2023-04-10T10:58:47;9.00;;;7.28;;
57087;SDS011;42965;52.846;6.614;2023-04-10T11:01:13;9.00;;;8.02;;
57087;SDS011;42965;52.846;6.614;2023-04-10T11:03:41;10.57;;;7.32;;
57087;SDS011;42965;52.846;6.614;2023-04-10T11:06:10;9.32;;;7.78;;
57087;SDS011;42965;52.846;6.614;2023-04-10T11:08:39;9.25;;;7.82;;
57087;SDS011;42965;52.846;6.614;2023-04-10T11:11:17;7.95;;;7.15;;
57087;SDS011;42965;52.846;6.614;2023-04-10T11:16:18;10.00;;;6.90;;
57087;SDS011;42965;52.846;6.614;2023-04-10T11:21:20;7.00;;;6.25;;
57087;SDS011;42965;52.846;6.614;2023-04-10T11:28:59;7.57;;;6.57;;
57087;SDS011;42965;52.846;6.614;2023-04-10T11:31:29;8.48;;;5.97;;
57087;SDS011;42965;52.846;6.614;2023-04-10T11:36:23;7.07;;;5.72;;
57087;SDS011;42965;52.846;6.614;2023-04-10T11:39:01;8.52;;;5.65;;
57087;SDS011;42965;52.846;6.614;2023-04-10T11:41:35;6.20;;;5.13;;
57087;SDS011;42965;52.846;6.614;2023-04-10T11:44:10;7.68;;;5.57;;
57087;SDS011;42965;52.846;6.614;2023-04-10T11:46:52;6.88;;;5.72;;
57087;SDS011;42965;52.846;6.614;2023-04-10T11:49:19;6.15;;;5.50;;
57087;SDS011;42965;52.846;6.614;2023-04-10T11:51:47;7.88;;;5.65;;
57087;SDS011;42965;52.846;6.614;2023-04-10T11:54:19;8.60;;;6.03;;
57087;SDS011;42965;52.846;6.614;2023-04-10T11:57:05;7.38;;;5.78;;
57087;SDS011;42965;52.846;6.614;2023-04-10T11:59:37;7.18;;;5.45;;
57087;SDS011;42965;52.846;6.614;2023-04-10T12:02:07;7.25;;;5.30;;
57087;SDS011;42965;52.846;6.614;2023-04-10T12:04:34;6.82;;;5.60;;
57087;SDS011;42965;52.846;6.614;2023-04-10T12:07:01;6.53;;;5.20;;
57087;SDS011;42965;52.846;6.614;2023-04-10T12:09:27;7.22;;;5.13;;
57087;SDS011;42965;52.846;6.614;2023-04-10T12:11:58;7.45;;;5.18;;
57087;SDS011;42965;52.846;6.614;2023-04-10T12:14:33;6.32;;;4.85;;
57087;SDS011;42965;52.846;6.614;2023-04-10T12:17:01;7.97;;;5.68;;
57087;SDS011;42965;52.846;6.614;2023-04-10T12:19:29;8.35;;;5.95;;
57087;SDS011;42965;52.846;6.614;2023-04-10T12:21:56;6.38;;;5.38;;
57087;SDS011;42965;52.846;6.614;2023-04-10T12:24:43;7.22;;;5.45;;
57087;SDS011;42965;52.846;6.614;2023-04-10T12:27:22;6.93;;;5.38;;
57087;SDS011;42965;52.846;6.614;2023-04-10T12:29:49;7.70;;;5.43;;
57087;SDS011;42965;52.846;6.614;2023-04-10T12:32:17;7.43;;;5.30;;
57087;SDS011;42965;52.846;6.614;2023-04-10T12:34:53;6.90;;;5.57;;
57087;SDS011;42965;52.846;6.614;2023-04-10T12:37:22;7.43;;;5.53;;
57087;SDS011;42965;52.846;6.614;2023-04-10T12:39:49;8.27;;;6.13;;
57087;SDS011;42965;52.846;6.614;2023-04-10T12:42:20;7.35;;;5.80;;
57087;SDS011;42965;52.846;6.614;2023-04-10T12:44:59;6.18;;;5.00;;
57087;SDS011;42965;52.846;6.614;2023-04-10T12:47:26;7.50;;;5.38;;
57087;SDS011;42965;52.846;6.614;2023-04-10T12:50:06;7.07;;;5.43;;
57087;SDS011;42965;52.846;6.614;2023-04-10T12:52:35;6.22;;;5.28;;
57087;SDS011;42965;52.846;6.614;2023-04-10T12:55:15;8.93;;;5.57;;
57087;SDS011;42965;52.846;6.614;2023-04-10T12:57:43;8.98;;;5.55;;
57087;SDS011;42965;52.846;6.614;2023-04-10T13:00:12;6.82;;;5.85;;
57087;SDS011;42965;52.846;6.614;2023-04-10T13:02:40;7.22;;;5.68;;
57087;SDS011;42965;52.846;6.614;2023-04-10T13:05:07;6.47;;;5.55;;
57087;SDS011;42965;52.846;6.614;2023-04-10T13:07:33;6.75;;;5.50;;
57087;SDS011;42965;52.846;6.614;2023-04-10T13:10:00;7.22;;;5.07;;
57087;SDS011;42965;52.846;6.614;2023-04-10T13:12:27;7.78;;;5.70;;
57087;SDS011;42965;52.846;6.614;2023-04-10T13:14:54;6.68;;;5.18;;
57087;SDS011;42965;52.846;6.614;2023-04-10T13:17:22;17.27;;;5.78;;
57087;SDS011;42965;52.846;6.614;2023-04-10T13:19:50;6.20;;;5.22;;
57087;SDS011;42965;52.846;6.614;2023-04-10T13:22:17;8.27;;;5.43;;
57087;SDS011;42965;52.846;6.614;2023-04-10T13:24:43;5.72;;;5.07;;
57087;SDS011;42965;52.846;6.614;2023-04-10T13:27:09;8.45;;;5.60;;
57087;SDS011;42965;52.846;6.614;2023-04-10T13:29:37;7.00;;;5.03;;
57087;SDS011;42965;52.846;6.614;2023-04-10T13:32:06;7.38;;;5.63;;
57087;SDS011;42965;52.846;6.614;2023-04-10T13:34:32;6.75;;;5.38;;
57087;SDS011;42965;52.846;6.614;2023-04-10T13:36:59;5.38;;;4.78;;
57087;SDS011;42965;52.846;6.614;2023-04-10T13:39:27;6.43;;;5.15;;
57087;SDS011;42965;52.846;6.614;2023-04-10T13:41:54;6.18;;;4.90;;
57087;SDS011;42965;52.846;6.614;2023-04-10T13:44:23;7.90;;;5.03;;
57087;SDS011;42965;52.846;6.614;2023-04-10T13:46:49;6.95;;;5.82;;
57087;SDS011;42965;52.846;6.614;2023-04-10T13:49:16;6.00;;;5.25;;
57087;SDS011;42965;52.846;6.614;2023-04-10T13:51:44;7.20;;;5.00;;
57087;SDS011;42965;52.846;6.614;2023-04-10T13:54:11;6.97;;;5.38;;
57087;SDS011;42965;52.846;6.614;2023-04-10T13:56:41;7.38;;;5.05;;
57087;SDS011;42965;52.846;6.614;2023-04-10T13:59:09;5.90;;;5.07;;
57087;SDS011;42965;52.846;6.614;2023-04-10T14:01:35;5.90;;;4.93;;
57087;SDS011;42965;52.846;6.614;2023-04-10T14:04:01;7.60;;;5.80;;
57087;SDS011;42965;52.846;6.614;2023-04-10T14:06:28;7.28;;;5.28;;
57087;SDS011;42965;52.846;6.614;2023-04-10T14:08:54;7.03;;;5.32;;
57087;SDS011;42965;52.846;6.614;2023-04-10T14:11:23;6.75;;;5.93;;
57087;SDS011;42965;52.846;6.614;2023-04-10T14:13:51;7.63;;;5.05;;
57087;SDS011;42965;52.846;6.614;2023-04-10T14:16:17;8.88;;;5.60;;
57087;SDS011;42965;52.846;6.614;2023-04-10T14:18:47;6.40;;;5.10;;
57087;SDS011;42965;52.846;6.614;2023-04-10T14:21:13;8.40;;;5.05;;
57087;SDS011;42965;52.846;6.614;2023-04-10T14:23:39;6.90;;;5.07;;
57087;SDS011;42965;52.846;6.614;2023-04-10T14:26:07;5.93;;;4.93;;
57087;SDS011;42965;52.846;6.614;2023-04-10T14:28:34;6.15;;;4.65;;
57087;SDS011;42965;52.846;6.614;2023-04-10T14:31:00;7.68;;;5.25;;
57087;SDS011;42965;52.846;6.614;2023-04-10T14:33:27;6.45;;;4.80;;
57087;SDS011;42965;52.846;6.614;2023-04-10T14:35:54;6.90;;;5.30;;
57087;SDS011;42965;52.846;6.614;2023-04-10T14:38:22;5.60;;;4.72;;
57087;SDS011;42965;52.846;6.614;2023-04-10T14:40:49;7.50;;;5.18;;
57087;SDS011;42965;52.846;6.614;2023-04-10T14:43:15;9.20;;;4.95;;
57087;SDS011;42965;52.846;6.614;2023-04-10T14:45:43;6.63;;;4.65;;
57087;SDS011;42965;52.846;6.614;2023-04-10T14:48:10;6.38;;;5.13;;
57087;SDS011;42965;52.846;6.614;2023-04-10T14:50:37;8.20;;;6.00;;
57087;SDS011;42965;52.846;6.614;2023-04-10T14:53:03;7.70;;;5.50;;
57087;SDS011;42965;52.846;6.614;2023-04-10T14:55:30;6.82;;;5.20;;
57087;SDS011;42965;52.846;6.614;2023-04-10T14:57:56;6.40;;;5.25;;
57087;SDS011;42965;52.846;6.614;2023-04-10T15:00:22;7.45;;;4.85;;
57087;SDS011;42965;52.846;6.614;2023-04-10T15:02:50;7.47;;;5.30;;
57087;SDS011;42965;52.846;6.614;2023-04-10T15:05:16;6.32;;;5.25;;
57087;SDS011;42965;52.846;6.614;2023-04-10T15:07:42;5.72;;;4.53;;
57087;SDS011;42965;52.846;6.614;2023-04-10T15:10:09;7.38;;;4.90;;
57087;SDS011;42965;52.846;6.614;2023-04-10T15:12:35;5.95;;;5.03;;
57087;SDS011;42965;52.846;6.614;2023-04-10T15:15:01;7.40;;;5.10;;
57087;SDS011;42965;52.846;6.614;2023-04-10T15:17:27;6.85;;;5.22;;
57087;SDS011;42965;52.846;6.614;2023-04-10T15:19:54;7.13;;;5.30;;
57087;SDS011;42965;52.846;6.614;2023-04-10T15:22:21;6.65;;;5.15;;
57087;SDS011;42965;52.846;6.614;2023-04-10T15:24:47;7.38;;;4.95;;
57087;SDS011;42965;52.846;6.614;2023-04-10T15:27:13;6.13;;;5.20;;
57087;SDS011;42965;52.846;6.614;2023-04-10T15:29:41;7.50;;;5.32;;